Time;durP1;ratioP1;P1;durP2;ratioP2;P2;SDS_P1;SDS_P2;PMS_P1;PMS_P2;Temp;Humidity;BMP_temperature;BMP_pressure;BME280_temperature;BME280_humidity;BME280_pressure;Samples;Min_cycle;Max_cycle;Signal;HPM_P1;HPM_P2
2023/01/19 00:00:40;;;;;;;6.80;5.93;;;;;;;;;;6210866;23;20367;-72
2023/01/19 00:03:05;;;;;;;8.30;6.10;;;;;;;;;;6210847;23;20235;-72
2023/01/19 00:05:32;;;;;;;7.57;6.10;;;;;;;;;;6210416;23;20255;-72
2023/01/19 00:08:13;;;;;;;7.53;6.83;;;;;;;;;;6209048;23;20156;-72
2023/01/19 00:10:38;;;;;;;10.10;5.70;;;;;;;;;;6208634;23;20437;-72
2023/01/19 00:13:04;;;;;;;10.30;6.50;;;;;;;;;;6210989;23;20844;-72
2023/01/19 00:15:29;;;;;;;9.43;6.67;;;;;;;;;;6209297;23;20603;-72
2023/01/19 00:17:54;;;;;;;6.50;5.90;;;;;;;;;;6210635;23;20167;-72
2023/01/19 00:20:22;;;;;;;7.33;6.43;;;;;;;;;;6210376;23;20158;-72
2023/01/19 00:22:49;;;;;;;7.50;6.23;;;;;;;;;;6210034;23;20369;-72
2023/01/19 00:25:15;;;;;;;9.83;6.30;;;;;;;;;;6207818;23;20379;-72
2023/01/19 00:27:40;;;;;;;9.93;7.07;;;;;;;;;;6209299;23;20485;-73
2023/01/19 00:30:06;;;;;;;8.00;6.23;;;;;;;;;;6206791;23;20144;-72
2023/01/19 00:32:31;;;;;;;8.50;6.40;;;;;;;;;;6181341;23;20175;-72
2023/01/19 00:34:56;;;;;;;6.73;6.07;;;;;;;;;;6207923;23;20159;-73
2023/01/19 00:37:22;;;;;;;6.90;5.17;;;;;;;;;;6209112;23;20234;-74
2023/01/19 00:39:47;;;;;;;8.23;5.27;;;;;;;;;;6208107;23;20649;-72
2023/01/19 00:44:56;;;;;;;7.63;4.50;;;;;;;;;;6209264;23;20638;-72
2023/01/19 00:47:21;;;;;;;5.47;4.30;;;;;;;;;;6208985;23;20367;-74
2023/01/19 00:49:47;;;;;;;5.13;4.50;;;;;;;;;;6181597;23;20495;-72
2023/01/19 00:52:12;;;;;;;5.53;4.20;;;;;;;;;;6183643;23;20172;-72
2023/01/19 00:54:37;;;;;;;6.40;4.07;;;;;;;;;;6183795;23;20202;-72
2023/01/19 00:57:03;;;;;;;4.50;4.10;;;;;;;;;;6210400;23;20227;-72
2023/01/19 00:59:28;;;;;;;6.43;4.57;;;;;;;;;;6208920;23;20168;-71
2023/01/19 01:01:53;;;;;;;4.83;4.23;;;;;;;;;;6182938;23;20164;-73
2023/01/19 01:04:19;;;;;;;10.43;4.40;;;;;;;;;;6209736;23;20140;-73
2023/01/19 01:06:44;;;;;;;6.67;5.07;;;;;;;;;;6210356;23;20155;-72
2023/01/19 01:09:12;;;;;;;5.50;4.37;;;;;;;;;;6209960;23;20614;-72
2023/01/19 01:11:38;;;;;;;4.27;3.80;;;;;;;;;;6209927;23;20235;-73
2023/01/19 01:14:04;;;;;;;4.83;3.27;;;;;;;;;;6210410;23;20364;-72
2023/01/19 01:16:29;;;;;;;6.30;3.53;;;;;;;;;;6210580;23;20386;-73
2023/01/19 01:18:54;;;;;;;4.27;2.80;;;;;;;;;;6208148;23;20172;-74
2023/01/19 01:21:20;;;;;;;5.90;3.80;;;;;;;;;;6183553;23;20175;-72
2023/01/19 01:23:45;;;;;;;6.27;3.20;;;;;;;;;;6209620;23;20218;-72
2023/01/19 01:26:10;;;;;;;3.33;3.03;;;;;;;;;;6210589;23;20607;-73
2023/01/19 01:28:35;;;;;;;4.67;3.00;;;;;;;;;;6181917;23;20164;-74
2023/01/19 01:31:01;;;;;;;3.53;2.40;;;;;;;;;;6183160;23;20159;-72
2023/01/19 01:33:26;;;;;;;4.00;2.70;;;;;;;;;;6209898;23;20148;-73
2023/01/19 01:35:51;;;;;;;2.90;2.50;;;;;;;;;;6209867;23;20222;-72
2023/01/19 01:38:17;;;;;;;7.00;3.10;;;;;;;;;;6183059;23;20214;-75
2023/01/19 01:40:42;;;;;;;5.20;3.17;;;;;;;;;;6181104;23;20155;-73
2023/01/19 01:43:14;;;;;;;5.70;2.47;;;;;;;;;;6207256;23;20559;-72
2023/01/19 01:45:40;;;;;;;6.40;3.20;;;;;;;;;;6182345;23;20151;-73
2023/01/19 01:48:11;;;;;;;4.20;2.97;;;;;;;;;;6180855;23;20386;-74
2023/01/19 01:53:42;;;;;;;3.33;2.40;;;;;;;;;;6209219;23;20349;-72
2023/01/19 01:56:10;;;;;;;4.70;2.93;;;;;;;;;;6209811;23;20371;-73
2023/01/19 01:58:36;;;;;;;6.97;2.53;;;;;;;;;;6182362;23;20468;-72
2023/01/19 02:03:45;;;;;;;7.07;2.47;;;;;;;;;;6209693;23;20437;-73
2023/01/19 02:06:12;;;;;;;4.53;2.47;;;;;;;;;;6208858;23;20371;-72
2023/01/19 02:14:26;;;;;;;2.20;1.60;;;;;;;;;;6210331;23;20346;-73
2023/01/19 02:16:52;;;;;;;2.83;1.60;;;;;;;;;;6182452;23;20831;-72
2023/01/19 02:19:21;;;;;;;3.13;1.50;;;;;;;;;;6208848;23;20172;-72
2023/01/19 02:21:49;;;;;;;1.43;1.20;;;;;;;;;;6209681;23;20186;-73
2023/01/19 02:24:14;;;;;;;3.70;1.20;;;;;;;;;;6182981;23;20407;-73
2023/01/19 02:26:45;;;;;;;1.10;1.00;;;;;;;;;;6209726;23;21118;-72
2023/01/19 02:29:12;;;;;;;1.37;1.27;;;;;;;;;;6209973;23;20190;-73
2023/01/19 02:31:38;;;;;;;2.70;1.70;;;;;;;;;;6209498;23;20794;-74
2023/01/19 02:34:04;;;;;;;3.30;1.57;;;;;;;;;;6182643;23;20394;-73
2023/01/19 02:36:34;;;;;;;2.33;1.53;;;;;;;;;;6208338;23;20144;-73
2023/01/19 02:39:00;;;;;;;1.67;1.43;;;;;;;;;;6209114;23;20414;-73
2023/01/19 02:41:29;;;;;;;1.83;1.73;;;;;;;;;;6204729;23;20478;-74
2023/01/19 02:43:56;;;;;;;1.43;1.33;;;;;;;;;;6208633;23;20355;-72
2023/01/19 02:46:22;;;;;;;3.00;1.60;;;;;;;;;;6209008;23;20361;-73
2023/01/19 02:48:47;;;;;;;3.03;1.40;;;;;;;;;;6183721;23;20479;-72
2023/01/19 02:51:15;;;;;;;1.73;1.63;;;;;;;;;;6182962;23;20199;-72
2023/01/19 02:53:44;;;;;;;1.80;1.70;;;;;;;;;;6209883;23;20564;-72
2023/01/19 02:56:09;;;;;;;2.20;1.97;;;;;;;;;;6183936;23;20376;-72
2023/01/19 02:58:39;;;;;;;2.80;1.90;;;;;;;;;;6209378;23;20782;-72
2023/01/19 03:01:22;;;;;;;3.33;2.10;;;;;;;;;;6207815;23;20266;-73
2023/01/19 03:04:01;;;;;;;4.37;2.40;;;;;;;;;;6186034;23;20374;-74
2023/01/19 03:06:32;;;;;;;4.10;2.43;;;;;;;;;;6212039;23;20351;-73
2023/01/19 03:09:00;;;;;;;3.40;2.30;;;;;;;;;;6212898;23;20363;-73
2023/01/19 03:11:28;;;;;;;3.07;2.13;;;;;;;;;;6210693;23;20410;-73
2023/01/19 03:14:00;;;;;;;2.80;2.40;;;;;;;;;;6213951;23;20363;-73
2023/01/19 03:16:31;;;;;;;4.07;2.30;;;;;;;;;;6186683;23;20426;-73
2023/01/19 03:19:08;;;;;;;2.73;2.53;;;;;;;;;;6183177;23;20423;-73
2023/01/19 03:21:35;;;;;;;2.73;2.53;;;;;;;;;;6210792;23;20407;-73
2023/01/19 03:24:02;;;;;;;3.13;2.83;;;;;;;;;;6210674;23;20366;-73
2023/01/19 03:26:29;;;;;;;2.70;2.20;;;;;;;;;;6206087;23;20390;-72
2023/01/19 03:28:55;;;;;;;3.70;2.73;;;;;;;;;;6210089;23;20371;-73
2023/01/19 03:31:23;;;;;;;4.17;2.93;;;;;;;;;;6210805;23;20393;-72
2023/01/19 03:33:59;;;;;;;3.20;3.00;;;;;;;;;;6184663;23;20461;-72
2023/01/19 03:36:33;;;;;;;5.10;3.03;;;;;;;;;;6183122;23;20371;-72
2023/01/19 03:39:00;;;;;;;4.10;3.03;;;;;;;;;;6209828;23;20890;-73
2023/01/19 03:41:26;;;;;;;3.83;2.77;;;;;;;;;;6210984;23;20441;-72
2023/01/19 03:43:52;;;;;;;4.13;3.60;;;;;;;;;;6184062;23;20379;-72
2023/01/19 03:46:18;;;;;;;4.03;2.97;;;;;;;;;;6210455;23;20382;-73
2023/01/19 03:48:44;;;;;;;3.90;3.57;;;;;;;;;;6208771;23;21007;-72
2023/01/19 03:51:10;;;;;;;4.70;3.53;;;;;;;;;;6207665;23;20450;-73
2023/01/19 03:53:36;;;;;;;2.97;2.77;;;;;;;;;;6207764;23;20980;-72
2023/01/19 03:56:01;;;;;;;2.97;2.77;;;;;;;;;;6209459;23;20370;-73
2023/01/19 03:58:27;;;;;;;5.60;3.40;;;;;;;;;;6208383;23;20585;-74
2023/01/19 04:00:52;;;;;;;3.43;3.13;;;;;;;;;;6180741;23;20154;-72
2023/01/19 04:03:18;;;;;;;2.60;2.40;;;;;;;;;;6182520;23;20737;-73
2023/01/19 04:05:47;;;;;;;3.23;2.90;;;;;;;;;;6182692;23;20552;-73
2023/01/19 04:08:12;;;;;;;3.20;2.90;;;;;;;;;;6180198;23;20383;-72
2023/01/19 04:10:37;;;;;;;3.07;2.77;;;;;;;;;;6178814;23;20390;-73
2023/01/19 04:13:03;;;;;;;10.53;3.77;;;;;;;;;;6209365;23;20631;-73
2023/01/19 04:15:29;;;;;;;2.67;2.47;;;;;;;;;;6210531;23;20144;-72
2023/01/19 04:17:58;;;;;;;3.57;3.27;;;;;;;;;;6207997;23;20178;-73
2023/01/19 04:20:25;;;;;;;3.67;3.30;;;;;;;;;;6207996;23;21041;-74
2023/01/19 04:22:51;;;;;;;2.90;2.70;;;;;;;;;;6181953;23;20398;-73
2023/01/19 04:25:16;;;;;;;3.00;2.80;;;;;;;;;;6208962;23;20889;-73
2023/01/19 04:27:41;;;;;;;3.53;3.23;;;;;;;;;;6203650;23;20219;-74
2023/01/19 04:30:08;;;;;;;3.67;3.37;;;;;;;;;;6179883;23;20148;-72
2023/01/19 04:32:34;;;;;;;4.43;3.83;;;;;;;;;;6207284;23;20187;-73
2023/01/19 04:34:59;;;;;;;5.50;3.33;;;;;;;;;;6179077;23;20374;-73
2023/01/19 04:37:24;;;;;;;4.30;3.83;;;;;;;;;;6206048;23;20970;-73
2023/01/19 04:39:49;;;;;;;3.80;3.50;;;;;;;;;;6182146;23;20694;-73
2023/01/19 04:42:15;;;;;;;3.87;3.30;;;;;;;;;;6181360;23;20175;-73
2023/01/19 04:44:41;;;;;;;5.53;5.03;;;;;;;;;;6181611;23;20562;-72
2023/01/19 04:47:06;;;;;;;4.87;4.13;;;;;;;;;;6181161;23;20410;-72
2023/01/19 04:49:31;;;;;;;5.50;5.00;;;;;;;;;;6208974;23;20144;-72
2023/01/19 04:51:56;;;;;;;5.10;4.13;;;;;;;;;;6208878;23;20164;-72
2023/01/19 04:54:22;;;;;;;5.23;3.80;;;;;;;;;;6182442;23;20164;-72
2023/01/19 04:56:47;;;;;;;4.93;4.40;;;;;;;;;;6209261;23;20148;-72
2023/01/19 04:59:12;;;;;;;4.17;3.57;;;;;;;;;;6208505;23;20221;-72
2023/01/19 05:01:38;;;;;;;6.53;4.60;;;;;;;;;;6178221;23;20176;-72
2023/01/19 05:04:05;;;;;;;6.00;4.37;;;;;;;;;;6207603;23;20872;-72
2023/01/19 05:06:31;;;;;;;4.50;4.10;;;;;;;;;;6207400;23;20167;-72
2023/01/19 05:08:56;;;;;;;4.47;4.17;;;;;;;;;;6207408;23;20374;-72
2023/01/19 05:11:22;;;;;;;4.40;4.00;;;;;;;;;;6208318;23;20178;-73
2023/01/19 05:13:47;;;;;;;4.33;3.50;;;;;;;;;;6208914;23;20194;-73
2023/01/19 05:16:12;;;;;;;4.50;4.10;;;;;;;;;;6209443;23;20626;-73
2023/01/19 05:18:38;;;;;;;3.80;3.50;;;;;;;;;;6209236;23;20171;-73
2023/01/19 05:21:03;;;;;;;4.53;3.90;;;;;;;;;;6207353;23;20140;-73
2023/01/19 05:23:31;;;;;;;4.93;4.43;;;;;;;;;;6208351;22;20192;-67
2023/01/19 05:25:59;;;;;;;5.90;4.27;;;;;;;;;;6185057;23;20640;-72
2023/01/19 05:28:25;;;;;;;6.50;4.57;;;;;;;;;;6211410;23;20390;-69
2023/01/19 05:30:51;;;;;;;4.60;4.20;;;;;;;;;;6187099;23;20848;-69
2023/01/19 05:33:16;;;;;;;4.67;4.17;;;;;;;;;;6211393;23;20417;-68
2023/01/19 05:35:41;;;;;;;4.70;4.30;;;;;;;;;;6213448;23;20271;-69
2023/01/19 05:38:07;;;;;;;4.93;3.90;;;;;;;;;;6185785;23;20272;-68
2023/01/19 05:40:32;;;;;;;5.33;4.83;;;;;;;;;;6186450;23;20156;-68
2023/01/19 05:42:59;;;;;;;4.33;3.93;;;;;;;;;;6212422;23;20171;-68
2023/01/19 05:45:26;;;;;;;4.90;3.97;;;;;;;;;;6211772;23;20144;-68
2023/01/19 05:47:52;;;;;;;4.20;3.80;;;;;;;;;;6211003;23;20424;-70
2023/01/19 05:50:17;;;;;;;4.70;4.30;;;;;;;;;;6209467;23;20431;-68
2023/01/19 05:52:43;;;;;;;6.67;6.03;;;;;;;;;;6185593;23;20855;-69
2023/01/19 05:55:08;;;;;;;5.93;5.13;;;;;;;;;;6184006;23;20595;-68
2023/01/19 05:57:34;;;;;;;6.10;5.17;;;;;;;;;;6182032;23;20163;-67
2023/01/19 05:59:59;;;;;;;8.47;5.37;;;;;;;;;;6215436;23;20176;-68
2023/01/19 06:02:27;;;;;;;8.20;7.40;;;;;;;;;;6212843;23;20443;-67
2023/01/19 06:04:52;;;;;;;7.37;5.83;;;;;;;;;;6212944;23;20144;-69
2023/01/19 06:07:18;;;;;;;7.37;4.60;;;;;;;;;;6186624;23;20409;-67
2023/01/19 06:09:43;;;;;;;6.23;4.63;;;;;;;;;;6212867;23;20211;-68
2023/01/19 06:12:08;;;;;;;6.83;6.03;;;;;;;;;;6214462;23;20243;-68
2023/01/19 06:14:35;;;;;;;5.43;4.90;;;;;;;;;;6185014;23;20156;-67
2023/01/19 06:17:01;;;;;;;5.00;4.47;;;;;;;;;;6208986;23;20180;-68
2023/01/19 06:19:26;;;;;;;6.90;5.50;;;;;;;;;;6211838;23;20414;-68
2023/01/19 06:21:51;;;;;;;8.40;5.50;;;;;;;;;;6183303;23;20233;-69
2023/01/19 06:24:17;;;;;;;8.17;6.20;;;;;;;;;;6208989;23;20483;-68
2023/01/19 06:26:42;;;;;;;5.67;5.10;;;;;;;;;;6206442;23;20176;-69
2023/01/19 06:29:08;;;;;;;6.73;5.57;;;;;;;;;;6211347;23;20203;-70
2023/01/19 06:31:33;;;;;;;6.27;5.67;;;;;;;;;;6208245;23;20654;-70
2023/01/19 06:33:59;;;;;;;5.70;5.07;;;;;;;;;;6210438;23;20405;-69
2023/01/19 06:36:25;;;;;;;6.97;5.20;;;;;;;;;;6210510;23;20163;-69
2023/01/19 06:38:50;;;;;;;6.00;5.40;;;;;;;;;;6213643;23;20809;-69
2023/01/19 06:41:15;;;;;;;5.90;5.30;;;;;;;;;;6216471;23;20160;-69
2023/01/19 06:43:41;;;;;;;5.83;4.70;;;;;;;;;;6210090;23;20144;-69
2023/01/19 06:46:06;;;;;;;8.37;5.73;;;;;;;;;;6215119;23;20148;-69
2023/01/19 06:48:31;;;;;;;5.37;4.87;;;;;;;;;;6211918;23;20152;-69
2023/01/19 06:50:57;;;;;;;6.47;5.23;;;;;;;;;;6216688;23;20282;-69
2023/01/19 06:53:22;;;;;;;6.37;5.50;;;;;;;;;;6213942;23;20675;-70
2023/01/19 06:55:48;;;;;;;7.13;5.20;;;;;;;;;;6212822;23;20492;-70
2023/01/19 06:58:13;;;;;;;5.97;5.33;;;;;;;;;;6213972;23;20164;-69
2023/01/19 07:00:38;;;;;;;5.43;4.70;;;;;;;;;;6214068;23;20183;-70
2023/01/19 07:03:07;;;;;;;6.03;4.90;;;;;;;;;;6216466;23;20680;-69
2023/01/19 07:05:33;;;;;;;6.10;5.00;;;;;;;;;;6211654;23;20651;-69
2023/01/19 07:07:58;;;;;;;5.83;5.23;;;;;;;;;;6212560;23;20369;-69
2023/01/19 07:10:24;;;;;;;10.43;6.10;;;;;;;;;;6213920;23;20450;-71
2023/01/19 07:12:49;;;;;;;7.00;5.20;;;;;;;;;;6212911;23;20164;-70
2023/01/19 07:15:16;;;;;;;5.20;4.70;;;;;;;;;;6209398;23;20178;-69
2023/01/19 07:17:42;;;;;;;5.47;4.77;;;;;;;;;;6212272;23;20599;-70
2023/01/19 07:20:10;;;;;;;4.20;3.80;;;;;;;;;;6212658;23;20386;-69
2023/01/19 07:22:35;;;;;;;4.73;3.70;;;;;;;;;;6213814;23;20438;-70
2023/01/19 07:25:00;;;;;;;4.87;3.40;;;;;;;;;;6214629;23;20366;-70
2023/01/19 07:27:26;;;;;;;4.80;3.00;;;;;;;;;;6186348;23;20600;-69
2023/01/19 07:29:52;;;;;;;3.43;2.40;;;;;;;;;;6213376;23;20148;-70
2023/01/19 07:32:17;;;;;;;2.90;2.00;;;;;;;;;;6187583;23;20738;-70
2023/01/19 07:34:42;;;;;;;4.40;2.60;;;;;;;;;;6214314;23;20152;-69
2023/01/19 07:37:08;;;;;;;4.70;1.80;;;;;;;;;;6214234;23;20525;-70
2023/01/19 07:39:35;;;;;;;3.87;1.70;;;;;;;;;;6215260;23;20180;-69
2023/01/19 07:42:00;;;;;;;1.90;1.20;;;;;;;;;;6188787;23;20230;-69
2023/01/19 07:44:26;;;;;;;2.83;1.20;;;;;;;;;;6187207;23;20371;-69
2023/01/19 07:46:51;;;;;;;5.27;1.20;;;;;;;;;;6187586;23;20144;-69
2023/01/19 07:49:17;;;;;;;5.97;1.40;;;;;;;;;;6215084;23;20154;-69
2023/01/19 07:51:42;;;;;;;5.27;1.20;;;;;;;;;;6214678;23;20227;-69
2023/01/19 07:54:08;;;;;;;2.30;1.23;;;;;;;;;;6213866;23;20171;-68
2023/01/19 07:56:33;;;;;;;1.43;1.03;;;;;;;;;;6186866;23;20159;-68
2023/01/19 07:58:58;;;;;;;7.90;1.37;;;;;;;;;;6215278;23;20290;-69
2023/01/19 08:01:24;;;;;;;4.30;1.40;;;;;;;;;;6212944;23;20164;-69
2023/01/19 08:03:49;;;;;;;2.53;1.10;;;;;;;;;;6212096;23;20148;-73
2023/01/19 08:06:19;;;;;;;3.13;1.00;;;;;;;;;;6213694;23;20202;-68
2023/01/19 08:08:44;;;;;;;12.33;1.43;;;;;;;;;;6188095;23;20607;-69
2023/01/19 08:11:10;;;;;;;6.30;1.43;;;;;;;;;;6212211;23;20406;-70
2023/01/19 08:13:35;;;;;;;5.37;1.60;;;;;;;;;;6186131;23;20159;-69
2023/01/19 08:16:09;;;;;;;5.73;1.50;;;;;;;;;;6215783;23;20147;-70
2023/01/19 08:18:34;;;;;;;4.00;1.43;;;;;;;;;;6214648;23;20558;-69
2023/01/19 08:21:00;;;;;;;6.60;1.30;;;;;;;;;;6215285;23;20367;-69
2023/01/19 08:23:26;;;;;;;9.10;1.70;;;;;;;;;;6214924;23;20162;-69
2023/01/19 08:25:52;;;;;;;11.93;1.80;;;;;;;;;;6215436;23;20144;-69
2023/01/19 08:28:17;;;;;;;5.90;1.70;;;;;;;;;;6187292;23;20414;-69
2023/01/19 08:30:43;;;;;;;5.10;1.03;;;;;;;;;;6212885;23;20622;-69
2023/01/19 08:33:09;;;;;;;11.33;1.83;;;;;;;;;;6213501;23;20167;-69
2023/01/19 08:35:41;;;;;;;10.83;1.90;;;;;;;;;;6212873;23;20255;-69
2023/01/19 08:38:07;;;;;;;5.57;1.27;;;;;;;;;;6214580;23;20753;-69
2023/01/19 08:40:34;;;;;;;8.97;2.03;;;;;;;;;;6188306;23;20886;-69
2023/01/19 08:43:04;;;;;;;9.87;1.80;;;;;;;;;;6187825;23;20737;-69
2023/01/19 08:45:30;;;;;;;17.30;2.03;;;;;;;;;;6213824;23;20366;-69
2023/01/19 08:47:57;;;;;;;20.03;4.33;;;;;;;;;;6185240;23;20581;-69
2023/01/19 08:50:25;;;;;;;15.37;2.07;;;;;;;;;;6186580;23;20158;-69
2023/01/19 08:52:51;;;;;;;11.90;1.73;;;;;;;;;;6187906;23;20893;-69
2023/01/19 08:55:16;;;;;;;10.07;2.23;;;;;;;;;;6212230;23;20391;-69
2023/01/19 08:57:41;;;;;;;12.63;2.20;;;;;;;;;;6210907;23;20140;-69
2023/01/19 09:00:10;;;;;;;9.60;2.37;;;;;;;;;;6208664;23;20144;-71
2023/01/19 09:02:35;;;;;;;12.40;2.27;;;;;;;;;;6183922;23;20195;-69
2023/01/19 09:05:01;;;;;;;14.00;1.87;;;;;;;;;;6185198;23;20374;-69
2023/01/19 09:07:27;;;;;;;12.77;1.93;;;;;;;;;;6210895;23;20140;-70
2023/01/19 09:09:53;;;;;;;11.43;2.07;;;;;;;;;;6209494;23;20148;-74
2023/01/19 09:12:18;;;;;;;6.13;1.60;;;;;;;;;;6213035;23;20393;-69
2023/01/19 09:14:44;;;;;;;8.30;1.80;;;;;;;;;;6184759;23;20160;-69
2023/01/19 09:17:09;;;;;;;10.60;2.20;;;;;;;;;;6212187;23;20154;-69
2023/01/19 09:19:34;;;;;;;10.13;2.17;;;;;;;;;;6213770;23;20199;-69
2023/01/19 09:22:00;;;;;;;13.50;2.13;;;;;;;;;;6214261;23;20168;-69
2023/01/19 09:24:25;;;;;;;5.53;1.80;;;;;;;;;;6214120;23;20136;-69
2023/01/19 09:26:53;;;;;;;4.57;1.27;;;;;;;;;;6187526;23;20214;-70
2023/01/19 09:29:19;;;;;;;10.00;1.60;;;;;;;;;;6213937;23;20505;-69
2023/01/19 09:31:44;;;;;;;5.93;2.13;;;;;;;;;;6214375;23;20395;-70
2023/01/19 09:34:11;;;;;;;5.30;1.13;;;;;;;;;;6187675;23;20152;-69
2023/01/19 09:36:38;;;;;;;5.77;1.30;;;;;;;;;;6213680;23;20171;-69
2023/01/19 09:39:03;;;;;;;6.60;1.77;;;;;;;;;;6213189;23;20453;-68
2023/01/19 09:41:34;;;;;;;6.80;2.73;;;;;;;;;;6210966;23;20784;-69
2023/01/19 09:43:59;;;;;;;5.90;1.70;;;;;;;;;;6182873;23;20151;-68
2023/01/19 09:46:37;;;;;;;9.67;1.70;;;;;;;;;;6184725;23;20715;-69
2023/01/19 09:49:10;;;;;;;8.20;1.47;;;;;;;;;;6209809;23;20155;-69
2023/01/19 09:51:38;;;;;;;8.77;1.57;;;;;;;;;;6211358;23;20379;-69
2023/01/19 09:54:03;;;;;;;8.40;1.67;;;;;;;;;;6209996;23;20367;-68
2023/01/19 09:56:29;;;;;;;6.23;1.37;;;;;;;;;;6211598;23;20363;-69
2023/01/19 09:59:15;;;;;;;6.70;1.23;;;;;;;;;;6210263;23;20293;-69
2023/01/19 10:01:59;;;;;;;8.23;2.03;;;;;;;;;;6209622;23;20406;-69
2023/01/19 10:04:24;;;;;;;6.60;2.10;;;;;;;;;;6205301;23;20384;-69
2023/01/19 10:06:50;;;;;;;11.20;2.00;;;;;;;;;;6210194;23;20448;-68
2023/01/19 10:09:27;;;;;;;6.63;2.27;;;;;;;;;;6185949;23;20785;-69
2023/01/19 10:11:57;;;;;;;7.73;1.80;;;;;;;;;;6187137;23;20391;-73
2023/01/19 10:14:41;;;;;;;11.50;1.63;;;;;;;;;;6211520;23;20370;-69
2023/01/19 10:17:15;;;;;;;12.93;2.37;;;;;;;;;;6210305;23;20411;-69
2023/01/19 10:19:45;;;;;;;10.27;1.93;;;;;;;;;;6212189;23;20870;-69
2023/01/19 10:22:19;;;;;;;14.40;2.40;;;;;;;;;;6213911;23;20425;-69
2023/01/19 10:24:45;;;;;;;10.37;2.17;;;;;;;;;;6214274;23;20817;-69
2023/01/19 10:27:17;;;;;;;9.97;2.67;;;;;;;;;;6213556;23;20366;-70
2023/01/19 10:29:44;;;;;;;10.37;1.90;;;;;;;;;;6187184;23;20371;-68
2023/01/19 10:32:12;;;;;;;9.53;1.90;;;;;;;;;;6186075;23;21202;-69
2023/01/19 10:34:40;;;;;;;12.33;2.73;;;;;;;;;;6187210;23;20451;-69
2023/01/19 10:37:26;;;;;;;7.40;1.90;;;;;;;;;;6212323;23;20377;-69
2023/01/19 10:39:57;;;;;;;14.30;2.60;;;;;;;;;;6211620;23;20426;-69
2023/01/19 10:42:26;;;;;;;13.43;2.17;;;;;;;;;;6208423;23;20379;-69
2023/01/19 10:44:51;;;;;;;11.00;2.43;;;;;;;;;;6182561;23;20371;-69
2023/01/19 10:47:18;;;;;;;4.83;1.10;;;;;;;;;;6211871;23;20363;-69
2023/01/19 10:49:43;;;;;;;10.17;2.63;;;;;;;;;;6187469;23;20171;-68
2023/01/19 10:52:31;;;;;;;7.53;1.77;;;;;;;;;;6212056;23;20391;-69
2023/01/19 10:54:58;;;;;;;9.33;2.67;;;;;;;;;;6198164;23;20210;-69
2023/01/19 10:57:31;;;;;;;9.20;2.20;;;;;;;;;;6211628;23;20443;-70
2023/01/19 10:59:57;;;;;;;15.20;2.40;;;;;;;;;;6183588;23;20427;-69
2023/01/19 11:02:25;;;;;;;7.67;1.90;;;;;;;;;;6212310;23;20788;-69
2023/01/19 11:04:51;;;;;;;8.53;2.40;;;;;;;;;;6209337;23;20198;-70
2023/01/19 11:07:21;;;;;;;14.03;2.40;;;;;;;;;;6185172;23;20379;-69
2023/01/19 11:09:47;;;;;;;11.17;1.70;;;;;;;;;;6213742;23;20367;-70
2023/01/19 11:12:20;;;;;;;18.30;2.53;;;;;;;;;;6185997;23;20409;-70
2023/01/19 11:14:46;;;;;;;6.43;1.83;;;;;;;;;;6185331;23;20159;-70
2023/01/19 11:17:19;;;;;;;8.70;1.33;;;;;;;;;;6186130;23;20386;-69
2023/01/19 11:19:51;;;;;;;12.53;2.10;;;;;;;;;;6211695;23;20415;-69
2023/01/19 11:22:21;;;;;;;9.67;2.07;;;;;;;;;;6214559;23;20413;-71
2023/01/19 11:24:46;;;;;;;8.27;1.90;;;;;;;;;;6186953;23;20769;-69
2023/01/19 11:27:15;;;;;;;9.67;2.17;;;;;;;;;;6212447;23;20360;-70
2023/01/19 11:32:21;;;;;;;6.83;1.97;;;;;;;;;;6204444;23;20423;-70
2023/01/19 11:34:47;;;;;;;6.53;1.73;;;;;;;;;;6183982;23;20379;-70
2023/01/19 11:37:15;;;;;;;7.43;1.47;;;;;;;;;;6210167;23;20352;-70
2023/01/19 11:39:50;;;;;;;6.63;1.77;;;;;;;;;;6211560;23;20199;-70
2023/01/19 11:42:16;;;;;;;3.97;1.27;;;;;;;;;;6206360;23;20405;-69
2023/01/19 11:44:45;;;;;;;6.00;1.80;;;;;;;;;;6183814;23;20406;-70
2023/01/19 11:47:13;;;;;;;10.60;1.50;;;;;;;;;;6212133;23;20391;-70
2023/01/19 11:49:48;;;;;;;11.13;1.70;;;;;;;;;;6208270;23;20367;-70
2023/01/19 11:52:28;;;;;;;8.47;1.83;;;;;;;;;;6208915;23;20390;-70
2023/01/19 11:54:58;;;;;;;4.60;1.23;;;;;;;;;;6181989;23;20397;-69
2023/01/19 11:57:24;;;;;;;4.00;1.40;;;;;;;;;;6210163;23;20367;-70
2023/01/19 11:59:49;;;;;;;5.53;1.60;;;;;;;;;;6209145;23;20421;-70
2023/01/19 12:02:29;;;;;;;12.60;2.20;;;;;;;;;;6210461;23;20387;-70
2023/01/19 12:04:57;;;;;;;6.57;2.33;;;;;;;;;;6183637;23;20152;-69
2023/01/19 12:07:27;;;;;;;5.97;1.20;;;;;;;;;;6207283;23;20390;-70
2023/01/19 12:09:55;;;;;;;5.60;1.53;;;;;;;;;;6209678;23;20370;-70
2023/01/19 12:12:24;;;;;;;9.60;1.47;;;;;;;;;;6210541;23;20661;-70
2023/01/19 12:14:55;;;;;;;6.10;1.20;;;;;;;;;;6206208;23;20375;-70
2023/01/19 12:17:25;;;;;;;6.57;1.30;;;;;;;;;;6183219;23;21206;-69
2023/01/19 12:19:54;;;;;;;4.70;1.30;;;;;;;;;;6210426;23;20501;-70
2023/01/19 12:22:20;;;;;;;7.57;1.27;;;;;;;;;;6182853;23;20395;-70
2023/01/19 12:24:48;;;;;;;10.70;1.47;;;;;;;;;;6209174;23;21133;-70
2023/01/19 12:27:35;;;;;;;4.73;1.70;;;;;;;;;;6185005;23;20415;-70
2023/01/19 12:30:00;;;;;;;7.83;1.37;;;;;;;;;;6210539;23;20715;-70
2023/01/19 12:32:32;;;;;;;5.43;1.43;;;;;;;;;;6211103;23;20387;-69
2023/01/19 12:34:57;;;;;;;7.57;1.47;;;;;;;;;;6209204;23;20148;-70
2023/01/19 12:37:41;;;;;;;3.00;1.40;;;;;;;;;;6185223;23;20390;-69
2023/01/19 12:40:22;;;;;;;3.53;1.27;;;;;;;;;;6184277;23;20261;-69
2023/01/19 12:42:55;;;;;;;4.77;1.50;;;;;;;;;;6185068;23;20405;-72
2023/01/19 12:45:28;;;;;;;10.37;1.30;;;;;;;;;;6183101;23;20371;-70
2023/01/19 12:47:54;;;;;;;6.40;1.70;;;;;;;;;;6208452;23;20354;-72
2023/01/19 12:50:22;;;;;;;4.80;1.40;;;;;;;;;;6211315;23;20442;-73
2023/01/19 12:52:59;;;;;;;6.43;1.33;;;;;;;;;;6212619;23;20171;-73
2023/01/19 12:55:26;;;;;;;7.87;1.43;;;;;;;;;;6213254;23;20423;-72
2023/01/19 12:57:51;;;;;;;6.10;1.50;;;;;;;;;;6212683;23;20417;-72
2023/01/19 13:00:23;;;;;;;7.67;1.20;;;;;;;;;;6208268;23;20367;-74
2023/01/19 13:02:58;;;;;;;9.17;1.57;;;;;;;;;;6209576;23;20179;-72
2023/01/19 13:05:24;;;;;;;7.47;1.60;;;;;;;;;;6209013;23;20363;-72
2023/01/19 13:08:01;;;;;;;7.33;1.60;;;;;;;;;;6207572;23;20391;-75
2023/01/19 13:11:00;;;;;;;7.23;2.30;;;;;;;;;;6182655;23;20175;-73
2023/01/19 13:13:29;;;;;;;8.27;1.50;;;;;;;;;;6117931;23;20375;-74
2023/01/19 13:15:55;;;;;;;5.63;1.20;;;;;;;;;;6206537;23;20367;-72
2023/01/19 13:18:23;;;;;;;6.10;1.60;;;;;;;;;;6209169;23;20437;-72
2023/01/19 13:20:48;;;;;;;6.73;1.23;;;;;;;;;;6208112;23;20889;-75
2023/01/19 13:23:13;;;;;;;5.13;1.37;;;;;;;;;;6207776;23;20383;-73
2023/01/19 13:25:39;;;;;;;5.97;1.53;;;;;;;;;;6209374;23;20151;-72
2023/01/19 13:28:08;;;;;;;3.80;1.20;;;;;;;;;;6202756;23;20143;-72
2023/01/19 13:30:35;;;;;;;24.37;3.50;;;;;;;;;;6209678;23;20239;-73
2023/01/19 13:33:04;;;;;;;3.87;1.10;;;;;;;;;;6180459;23;20478;-72
2023/01/19 13:35:29;;;;;;;3.63;1.20;;;;;;;;;;6208428;23;20365;-72
2023/01/19 13:37:56;;;;;;;3.43;1.20;;;;;;;;;;6179489;23;20382;-72
2023/01/19 13:40:22;;;;;;;3.80;0.83;;;;;;;;;;6206409;23;20193;-72
2023/01/19 13:42:48;;;;;;;3.40;1.10;;;;;;;;;;6209969;23;20743;-72
2023/01/19 13:45:25;;;;;;;4.17;1.07;;;;;;;;;;6204674;23;20378;-73
2023/01/19 13:47:51;;;;;;;2.77;0.90;;;;;;;;;;6212038;23;20379;-72
2023/01/19 13:50:27;;;;;;;2.33;1.13;;;;;;;;;;6211452;23;20374;-72
2023/01/19 13:52:54;;;;;;;3.67;1.10;;;;;;;;;;6209599;23;20593;-72
2023/01/19 13:55:20;;;;;;;5.20;1.00;;;;;;;;;;6210601;23;20371;-73
2023/01/19 13:57:48;;;;;;;3.90;0.80;;;;;;;;;;6210658;23;20442;-72
2023/01/19 14:00:15;;;;;;;3.67;0.70;;;;;;;;;;6210361;23;20696;-73
2023/01/19 14:02:49;;;;;;;5.67;1.10;;;;;;;;;;6209979;23;20379;-72
2023/01/19 14:05:15;;;;;;;1.57;0.70;;;;;;;;;;6184311;23;20425;-72
2023/01/19 14:07:40;;;;;;;2.47;0.90;;;;;;;;;;6212678;23;20711;-72
2023/01/19 14:10:08;;;;;;;2.97;0.90;;;;;;;;;;6210899;23;20368;-73
2023/01/19 14:12:33;;;;;;;5.47;1.53;;;;;;;;;;6181374;23;20180;-73
2023/01/19 14:14:59;;;;;;;3.10;1.50;;;;;;;;;;6207970;23;20389;-73
2023/01/19 14:17:28;;;;;;;3.60;0.80;;;;;;;;;;6180304;23;20500;-72
2023/01/19 14:19:55;;;;;;;5.73;1.40;;;;;;;;;;6209392;23;20752;-73
2023/01/19 14:22:20;;;;;;;2.77;1.00;;;;;;;;;;6183483;23;20481;-72
2023/01/19 14:24:45;;;;;;;1.67;0.80;;;;;;;;;;6207103;23;20394;-72
2023/01/19 14:27:19;;;;;;;4.03;1.00;;;;;;;;;;6205743;23;20156;-73
2023/01/19 14:29:47;;;;;;;3.50;1.40;;;;;;;;;;6208075;23;20608;-73
2023/01/19 14:32:12;;;;;;;2.80;0.90;;;;;;;;;;6204391;23;20453;-73
2023/01/19 14:34:40;;;;;;;5.40;1.27;;;;;;;;;;6205433;23;20383;-73
2023/01/19 14:37:24;;;;;;;8.90;1.33;;;;;;;;;;6202960;23;20727;-72
2023/01/19 14:39:52;;;;;;;2.83;1.07;;;;;;;;;;6207709;23;20411;-72
2023/01/19 14:42:21;;;;;;;5.50;1.67;;;;;;;;;;6207637;23;20733;-73
2023/01/19 14:44:48;;;;;;;2.77;1.00;;;;;;;;;;6205280;23;20375;-72
2023/01/19 14:47:40;;;;;;;5.73;1.20;;;;;;;;;;6206507;23;20375;-73
2023/01/19 14:50:09;;;;;;;2.47;1.10;;;;;;;;;;6204919;23;20382;-74
2023/01/19 14:52:40;;;;;;;4.10;1.50;;;;;;;;;;6208851;23;20478;-72
2023/01/19 14:55:06;;;;;;;3.80;1.43;;;;;;;;;;6210316;23;20402;-72
2023/01/19 14:57:33;;;;;;;4.10;1.27;;;;;;;;;;6230081;23;20721;-72
2023/01/19 14:59:58;;;;;;;4.80;1.00;;;;;;;;;;6205702;23;20438;-72